sensor_id;sensor_type;location;lat;lon;timestamp;pressure;altitude;pressure_sealevel;temperature;humidity
13968;BME280;39536;52.198;9.920;2023-05-16T00:01:47;100512.47;;;10.45;100.00
13968;BME280;39536;52.198;9.920;2023-05-16T00:04:14;100545.38;;;10.47;100.00
13968;BME280;39536;52.198;9.920;2023-05-16T00:06:41;100534.41;;;10.37;100.00
13968;BME280;39536;52.198;9.920;2023-05-16T00:09:08;100514.63;;;10.32;100.00
13968;BME280;39536;52.198;9.920;2023-05-16T00:11:36;100502.34;;;10.35;100.00
13968;BME280;39536;52.198;9.920;2023-05-16T00:14:03;100516.88;;;10.43;100.00
13968;BME280;39536;52.198;9.920;2023-05-16T00:16:30;100530.59;;;10.48;100.00
13968;BME280;39536;52.198;9.920;2023-05-16T00:18:57;100518.38;;;10.50;100.00
13968;BME280;39536;52.198;9.920;2023-05-16T00:21:24;100519.19;;;10.52;100.00
13968;BME280;39536;52.198;9.920;2023-05-16T00:23:50;100516.09;;;10.40;100.00
13968;BME280;39536;52.198;9.920;2023-05-16T00:26:17;100519.84;;;10.32;100.00
13968;BME280;39536;52.198;9.920;2023-05-16T00:28:45;100516.56;;;10.24;100.00
13968;BME280;39536;52.198;9.920;2023-05-16T00:31:11;100514.38;;;10.39;100.00
13968;BME280;39536;52.198;9.920;2023-05-16T00:33:38;100506.22;;;10.50;100.00
13968;BME280;39536;52.198;9.920;2023-05-16T00:36:05;100515.19;;;10.42;100.00
13968;BME280;39536;52.198;9.920;2023-05-16T00:38:32;100526.53;;;10.39;100.00
13968;BME280;39536;52.198;9.920;2023-05-16T00:40:58;100519.34;;;10.47;100.00
13968;BME280;39536;52.198;9.920;2023-05-16T00:43:25;100523.56;;;10.50;100.00
13968;BME280;39536;52.198;9.920;2023-05-16T00:45:53;100523.13;;;10.37;100.00
13968;BME280;39536;52.198;9.920;2023-05-16T00:48:22;100519.38;;;10.46;100.00
13968;BME280;39536;52.198;9.920;2023-05-16T00:50:49;100516.13;;;10.39;100.00
13968;BME280;39536;52.198;9.920;2023-05-16T00:53:16;100512.78;;;10.35;100.00
13968;BME280;39536;52.198;9.920;2023-05-16T00:55:44;100509.44;;;10.30;100.00
13968;BME280;39536;52.198;9.920;2023-05-16T00:58:11;100499.50;;;10.43;100.00
13968;BME280;39536;52.198;9.920;2023-05-16T01:00:38;100519.66;;;10.36;100.00
13968;BME280;39536;52.198;9.920;2023-05-16T01:03:06;100520.38;;;10.42;100.00
13968;BME280;39536;52.198;9.920;2023-05-16T01:05:33;100523.91;;;10.40;100.00
13968;BME280;39536;52.198;9.920;2023-05-16T01:07:59;100524.84;;;10.38;100.00
13968;BME280;39536;52.198;9.920;2023-05-16T01:10:29;100508.84;;;10.49;100.00
13968;BME280;39536;52.198;9.920;2023-05-16T01:13:02;100518.53;;;10.45;100.00
13968;BME280;39536;52.198;9.920;2023-05-16T01:15:39;100523.00;;;10.42;100.00
13968;BME280;39536;52.198;9.920;2023-05-16T01:18:14;100517.38;;;10.54;100.00
13968;BME280;39536;52.198;9.920;2023-05-16T01:20:48;100526.69;;;10.61;100.00
13968;BME280;39536;52.198;9.920;2023-05-16T01:23:29;100533.41;;;10.68;100.00
13968;BME280;39536;52.198;9.920;2023-05-16T01:26:20;100526.38;;;10.70;100.00
13968;BME280;39536;52.198;9.920;2023-05-16T01:28:49;100536.16;;;10.63;100.00
13968;BME280;39536;52.198;9.920;2023-05-16T01:31:16;100540.06;;;10.77;100.00
13968;BME280;39536;52.198;9.920;2023-05-16T01:33:43;100549.59;;;10.78;100.00
13968;BME280;39536;52.198;9.920;2023-05-16T01:36:16;100530.78;;;10.68;100.00
13968;BME280;39536;52.198;9.920;2023-05-16T01:39:01;100539.03;;;10.81;100.00
13968;BME280;39536;52.198;9.920;2023-05-16T01:41:42;100538.06;;;10.85;100.00
13968;BME280;39536;52.198;9.920;2023-05-16T01:44:17;100531.19;;;10.82;100.00
13968;BME280;39536;52.198;9.920;2023-05-16T01:46:48;100532.69;;;10.90;100.00
13968;BME280;39536;52.198;9.920;2023-05-16T01:49:25;100528.69;;;10.79;100.00
13968;BME280;39536;52.198;9.920;2023-05-16T01:51:59;100522.25;;;10.90;100.00
13968;BME280;39536;52.198;9.920;2023-05-16T01:54:30;100530.81;;;10.93;100.00
13968;BME280;39536;52.198;9.920;2023-05-16T01:56:59;100526.78;;;10.84;100.00
13968;BME280;39536;52.198;9.920;2023-05-16T01:59:28;100539.22;;;10.76;100.00
13968;BME280;39536;52.198;9.920;2023-05-16T02:01:56;100542.03;;;10.70;100.00
13968;BME280;39536;52.198;9.920;2023-05-16T02:04:23;100536.81;;;10.70;100.00
13968;BME280;39536;52.198;9.920;2023-05-16T02:06:50;100531.34;;;10.78;100.00
13968;BME280;39536;52.198;9.920;2023-05-16T02:09:17;100535.50;;;10.83;100.00
13968;BME280;39536;52.198;9.920;2023-05-16T02:11:44;100542.31;;;10.61;100.00
13968;BME280;39536;52.198;9.920;2023-05-16T02:14:13;100539.81;;;10.58;100.00
13968;BME280;39536;52.198;9.920;2023-05-16T02:16:40;100539.31;;;10.73;100.00
13968;BME280;39536;52.198;9.920;2023-05-16T02:19:06;100547.44;;;10.64;100.00
13968;BME280;39536;52.198;9.920;2023-05-16T02:21:33;100542.31;;;10.61;100.00
13968;BME280;39536;52.198;9.920;2023-05-16T02:24:00;100549.13;;;10.65;100.00
13968;BME280;39536;52.198;9.920;2023-05-16T02:26:26;100544.81;;;10.64;100.00
13968;BME280;39536;52.198;9.920;2023-05-16T02:28:53;100542.38;;;10.59;100.00
13968;BME280;39536;52.198;9.920;2023-05-16T02:31:28;100538.69;;;10.65;100.00
13968;BME280;39536;52.198;9.920;2023-05-16T02:33:55;100543.97;;;10.63;100.00
13968;BME280;39536;52.198;9.920;2023-05-16T02:36:22;100536.19;;;10.62;100.00
13968;BME280;39536;52.198;9.920;2023-05-16T02:38:49;100526.75;;;10.59;100.00
13968;BME280;39536;52.198;9.920;2023-05-16T02:41:15;100542.31;;;10.61;100.00
13968;BME280;39536;52.198;9.920;2023-05-16T02:43:42;100535.22;;;10.66;100.00
13968;BME280;39536;52.198;9.920;2023-05-16T02:46:23;100549.13;;;10.65;100.00
13968;BME280;39536;52.198;9.920;2023-05-16T02:48:51;100548.13;;;10.69;100.00
13968;BME280;39536;52.198;9.920;2023-05-16T02:51:19;100554.34;;;10.65;100.00
13968;BME280;39536;52.198;9.920;2023-05-16T02:53:46;100563.06;;;10.64;100.00
13968;BME280;39536;52.198;9.920;2023-05-16T02:56:12;100555.78;;;10.74;100.00
13968;BME280;39536;52.198;9.920;2023-05-16T02:58:39;100542.13;;;10.67;100.00
13968;BME280;39536;52.198;9.920;2023-05-16T03:01:06;100561.25;;;10.66;100.00
13968;BME280;39536;52.198;9.920;2023-05-16T03:03:34;100561.94;;;10.71;100.00
13968;BME280;39536;52.198;9.920;2023-05-16T03:06:02;100575.16;;;10.65;100.00
13968;BME280;39536;52.198;9.920;2023-05-16T03:08:29;100570.94;;;10.62;100.00
13968;BME280;39536;52.198;9.920;2023-05-16T03:10:56;100566.53;;;10.36;100.00
13968;BME280;39536;52.198;9.920;2023-05-16T03:13:22;100562.91;;;10.42;100.00
13968;BME280;39536;52.198;9.920;2023-05-16T03:15:49;100576.09;;;10.36;100.00
13968;BME280;39536;52.198;9.920;2023-05-16T03:18:16;100574.91;;;10.46;100.00
13968;BME280;39536;52.198;9.920;2023-05-16T03:20:42;100575.56;;;10.53;100.00
13968;BME280;39536;52.198;9.920;2023-05-16T03:23:10;100582.13;;;10.38;100.00
13968;BME280;39536;52.198;9.920;2023-05-16T03:25:37;100578.59;;;10.40;100.00
13968;BME280;39536;52.198;9.920;2023-05-16T03:28:05;100588.03;;;10.43;100.00
13968;BME280;39536;52.198;9.920;2023-05-16T03:30:32;100583.06;;;10.35;100.00
13968;BME280;39536;52.198;9.920;2023-05-16T03:32:58;100587.47;;;10.33;100.00
13968;BME280;39536;52.198;9.920;2023-05-16T03:35:25;100600.72;;;10.24;100.00
13968;BME280;39536;52.198;9.920;2023-05-16T03:37:52;100599.06;;;10.22;100.00
13968;BME280;39536;52.198;9.920;2023-05-16T03:40:20;100595.78;;;10.15;100.00
13968;BME280;39536;52.198;9.920;2023-05-16T03:42:47;100593.81;;;10.23;100.00
13968;BME280;39536;52.198;9.920;2023-05-16T03:45:14;100596.38;;;10.26;100.00
13968;BME280;39536;52.198;9.920;2023-05-16T03:47:40;100601.09;;;10.12;100.00
13968;BME280;39536;52.198;9.920;2023-05-16T03:50:08;100611.50;;;10.12;100.00
13968;BME280;39536;52.198;9.920;2023-05-16T03:52:35;100593.56;;;10.03;100.00
13968;BME280;39536;52.198;9.920;2023-05-16T03:55:02;100606.63;;;10.01;100.00
13968;BME280;39536;52.198;9.920;2023-05-16T03:57:31;100612.81;;;9.97;100.00
13968;BME280;39536;52.198;9.920;2023-05-16T03:59:59;100606.88;;;10.22;100.00
13968;BME280;39536;52.198;9.920;2023-05-16T04:02:26;100620.28;;;10.09;100.00
13968;BME280;39536;52.198;9.920;2023-05-16T04:04:52;100623.91;;;10.04;100.00
13968;BME280;39536;52.198;9.920;2023-05-16T04:07:19;100627.28;;;10.06;100.00
13968;BME280;39536;52.198;9.920;2023-05-16T04:09:46;100635.50;;;10.22;100.00
13968;BME280;39536;52.198;9.920;2023-05-16T04:12:12;100632.31;;;10.12;100.00
13968;BME280;39536;52.198;9.920;2023-05-16T04:14:40;100631.81;;;10.01;100.00
13968;BME280;39536;52.198;9.920;2023-05-16T04:17:07;100630.06;;;10.00;100.00
13968;BME280;39536;52.198;9.920;2023-05-16T04:19:33;100636.75;;;10.10;100.00
13968;BME280;39536;52.198;9.920;2023-05-16T04:22:00;100634.69;;;9.90;100.00
13968;BME280;39536;52.198;9.920;2023-05-16T04:24:26;100640.38;;;10.04;100.00
13968;BME280;39536;52.198;9.920;2023-05-16T04:26:53;100641.38;;;10.00;100.00
13968;BME280;39536;52.198;9.920;2023-05-16T04:29:20;100639.34;;;10.10;100.00
13968;BME280;39536;52.198;9.920;2023-05-16T04:31:49;100648.59;;;10.18;100.00
13968;BME280;39536;52.198;9.920;2023-05-16T04:34:15;100656.56;;;10.14;100.00
13968;BME280;39536;52.198;9.920;2023-05-16T04:36:42;100649.59;;;10.16;100.00
13968;BME280;39536;52.198;9.920;2023-05-16T04:39:08;100657.94;;;9.96;100.00
13968;BME280;39536;52.198;9.920;2023-05-16T04:41:36;100647.91;;;10.13;100.00
13968;BME280;39536;52.198;9.920;2023-05-16T04:44:02;100664.97;;;10.24;100.00
13968;BME280;39536;52.198;9.920;2023-05-16T04:46:29;100662.22;;;10.30;100.00
13968;BME280;39536;52.198;9.920;2023-05-16T04:48:57;100663.81;;;10.34;100.00
13968;BME280;39536;52.198;9.920;2023-05-16T04:51:23;100667.97;;;10.41;100.00
13968;BME280;39536;52.198;9.920;2023-05-16T04:53:50;100681.19;;;10.33;100.00
13968;BME280;39536;52.198;9.920;2023-05-16T04:56:17;100675.19;;;10.31;100.00
13968;BME280;39536;52.198;9.920;2023-05-16T04:58:44;100678.50;;;10.36;100.00
13968;BME280;39536;52.198;9.920;2023-05-16T05:01:11;100672.91;;;10.19;100.00
13968;BME280;39536;52.198;9.920;2023-05-16T05:03:37;100684.28;;;10.15;100.00
13968;BME280;39536;52.198;9.920;2023-05-16T05:06:05;100685.47;;;10.05;100.00
13968;BME280;39536;52.198;9.920;2023-05-16T05:08:32;100695.63;;;10.14;100.00
13968;BME280;39536;52.198;9.920;2023-05-16T05:10:59;100693.34;;;10.02;100.00
13968;BME280;39536;52.198;9.920;2023-05-16T05:13:25;100692.84;;;9.89;100.00
13968;BME280;39536;52.198;9.920;2023-05-16T05:15:52;100706.44;;;9.99;100.00
13968;BME280;39536;52.198;9.920;2023-05-16T05:18:18;100709.13;;;9.95;100.00
13968;BME280;39536;52.198;9.920;2023-05-16T05:20:45;100704.59;;;10.02;100.00
13968;BME280;39536;52.198;9.920;2023-05-16T05:23:13;100711.97;;;9.88;100.00
13968;BME280;39536;52.198;9.920;2023-05-16T05:25:40;100715.19;;;9.96;100.00
13968;BME280;39536;52.198;9.920;2023-05-16T05:28:06;100716.13;;;9.93;100.00
13968;BME280;39536;52.198;9.920;2023-05-16T05:30:33;100721.28;;;9.95;100.00
13968;BME280;39536;52.198;9.920;2023-05-16T05:33:00;100716.00;;;9.98;100.00
13968;BME280;39536;52.198;9.920;2023-05-16T05:35:26;100713.59;;;9.90;100.00
13968;BME280;39536;52.198;9.920;2023-05-16T05:37:53;100733.69;;;9.85;100.00
13968;BME280;39536;52.198;9.920;2023-05-16T05:40:21;100733.81;;;9.81;100.00
13968;BME280;39536;52.198;9.920;2023-05-16T05:42:47;100724.91;;;9.89;100.00
13968;BME280;39536;52.198;9.920;2023-05-16T05:45:14;100742.19;;;9.92;100.00
13968;BME280;39536;52.198;9.920;2023-05-16T05:47:41;100727.50;;;9.89;100.00
13968;BME280;39536;52.198;9.920;2023-05-16T05:50:09;100752.72;;;9.87;100.00
13968;BME280;39536;52.198;9.920;2023-05-16T05:52:36;100755.06;;;9.97;100.00
13968;BME280;39536;52.198;9.920;2023-05-16T05:55:03;100753.06;;;9.75;100.00
13968;BME280;39536;52.198;9.920;2023-05-16T05:57:31;100758.09;;;9.81;100.00
13968;BME280;39536;52.198;9.920;2023-05-16T05:59:58;100757.66;;;9.64;100.00
13968;BME280;39536;52.198;9.920;2023-05-16T06:02:26;100748.66;;;9.77;100.00
13968;BME280;39536;52.198;9.920;2023-05-16T06:04:53;100761.94;;;9.66;100.00
13968;BME280;39536;52.198;9.920;2023-05-16T06:07:20;100773.03;;;9.73;100.00
13968;BME280;39536;52.198;9.920;2023-05-16T06:09:46;100766.75;;;9.82;100.00
13968;BME280;39536;52.198;9.920;2023-05-16T06:12:13;100784.28;;;9.74;100.00
13968;BME280;39536;52.198;9.920;2023-05-16T06:14:41;100785.50;;;9.94;100.00
13968;BME280;39536;52.198;9.920;2023-05-16T06:17:07;100793.31;;;9.94;100.00
13968;BME280;39536;52.198;9.920;2023-05-16T06:19:34;100785.66;;;9.88;100.00
13968;BME280;39536;52.198;9.920;2023-05-16T06:22:01;100784.41;;;10.03;100.00
13968;BME280;39536;52.198;9.920;2023-05-16T06:24:27;100796.69;;;9.98;100.00
13968;BME280;39536;52.198;9.920;2023-05-16T06:26:55;100787.88;;;10.04;100.00
13968;BME280;39536;52.198;9.920;2023-05-16T06:29:22;100793.25;;;10.30;100.00
13968;BME280;39536;52.198;9.920;2023-05-16T06:31:50;100797.25;;;10.44;100.00
13968;BME280;39536;52.198;9.920;2023-05-16T06:34:17;100774.06;;;10.34;100.00
13968;BME280;39536;52.198;9.920;2023-05-16T06:36:43;100805.94;;;10.43;100.00
13968;BME280;39536;52.198;9.920;2023-05-16T06:39:10;100803.50;;;10.36;100.00
13968;BME280;39536;52.198;9.920;2023-05-16T06:41:37;100804.72;;;10.22;100.00
13968;BME280;39536;52.198;9.920;2023-05-16T06:44:03;100809.00;;;10.24;100.00
13968;BME280;39536;52.198;9.920;2023-05-16T06:46:30;100833.19;;;10.29;100.00
13968;BME280;39536;52.198;9.920;2023-05-16T06:48:59;100825.53;;;10.22;100.00
13968;BME280;39536;52.198;9.920;2023-05-16T06:51:25;100827.75;;;10.04;100.00
13968;BME280;39536;52.198;9.920;2023-05-16T06:53:52;100804.44;;;10.00;100.00
13968;BME280;39536;52.198;9.920;2023-05-16T06:56:19;100821.03;;;9.95;100.00
13968;BME280;39536;52.198;9.920;2023-05-16T06:58:45;100822.31;;;10.13;100.00
13968;BME280;39536;52.198;9.920;2023-05-16T07:01:13;100826.72;;;10.44;100.00
13968;BME280;39536;52.198;9.920;2023-05-16T07:03:40;100824.91;;;10.46;100.00
13968;BME280;39536;52.198;9.920;2023-05-16T07:06:08;100829.44;;;10.39;100.00
13968;BME280;39536;52.198;9.920;2023-05-16T07:08:35;100808.75;;;10.35;100.00
13968;BME280;39536;52.198;9.920;2023-05-16T07:11:01;100826.75;;;10.43;100.00
13968;BME280;39536;52.198;9.920;2023-05-16T07:13:28;100847.09;;;10.61;100.00
13968;BME280;39536;52.198;9.920;2023-05-16T07:15:54;100827.41;;;10.51;100.00
13968;BME280;39536;52.198;9.920;2023-05-16T07:18:21;100827.78;;;10.68;100.00
13968;BME280;39536;52.198;9.920;2023-05-16T07:20:48;100822.28;;;10.79;100.00
13968;BME280;39536;52.198;9.920;2023-05-16T07:23:16;100816.47;;;10.69;100.00
13968;BME280;39536;52.198;9.920;2023-05-16T07:25:43;100822.88;;;10.57;100.00
13968;BME280;39536;52.198;9.920;2023-05-16T07:28:09;100816.50;;;10.68;100.00
13968;BME280;39536;52.198;9.920;2023-05-16T07:30:36;100834.38;;;10.81;100.00
13968;BME280;39536;52.198;9.920;2023-05-16T07:33:03;100835.75;;;10.93;100.00
13968;BME280;39536;52.198;9.920;2023-05-16T07:35:30;100836.03;;;11.42;100.00
13968;BME280;39536;52.198;9.920;2023-05-16T07:37:56;100844.31;;;11.26;100.00
13968;BME280;39536;52.198;9.920;2023-05-16T07:40:24;100846.06;;;10.98;100.00
13968;BME280;39536;52.198;9.920;2023-05-16T07:42:53;100846.91;;;10.98;100.00
13968;BME280;39536;52.198;9.920;2023-05-16T07:45:20;100851.25;;;10.98;100.00
13968;BME280;39536;52.198;9.920;2023-05-16T07:47:47;100852.88;;;11.02;100.00
13968;BME280;39536;52.198;9.920;2023-05-16T07:50:13;100850.25;;;11.02;100.00
13968;BME280;39536;52.198;9.920;2023-05-16T07:52:40;100849.25;;;11.07;100.00
13968;BME280;39536;52.198;9.920;2023-05-16T07:55:08;100838.13;;;11.01;100.00
13968;BME280;39536;52.198;9.920;2023-05-16T07:57:36;100856.06;;;11.12;100.00
13968;BME280;39536;52.198;9.920;2023-05-16T08:00:03;100864.69;;;11.43;100.00
13968;BME280;39536;52.198;9.920;2023-05-16T08:02:30;100815.78;;;11.50;100.00
13968;BME280;39536;52.198;9.920;2023-05-16T08:04:56;100838.38;;;11.77;100.00
13968;BME280;39536;52.198;9.920;2023-05-16T08:07:23;100854.22;;;11.99;100.00
13968;BME280;39536;52.198;9.920;2023-05-16T08:09:50;100848.53;;;11.59;100.00
13968;BME280;39536;52.198;9.920;2023-05-16T08:12:16;100866.66;;;11.63;100.00
13968;BME280;39536;52.198;9.920;2023-05-16T08:14:44;100870.00;;;11.10;100.00
13968;BME280;39536;52.198;9.920;2023-05-16T08:17:11;100847.84;;;11.25;100.00
13968;BME280;39536;52.198;9.920;2023-05-16T08:19:38;100849.88;;;11.44;100.00
13968;BME280;39536;52.198;9.920;2023-05-16T08:22:05;100849.00;;;11.71;100.00
13968;BME280;39536;52.198;9.920;2023-05-16T08:24:32;100851.13;;;11.87;100.00
13968;BME280;39536;52.198;9.920;2023-05-16T08:26:59;100849.31;;;11.90;100.00
13968;BME280;39536;52.198;9.920;2023-05-16T08:29:25;100855.63;;;12.35;100.00
13968;BME280;39536;52.198;9.920;2023-05-16T08:31:54;100858.47;;;12.27;100.00
13968;BME280;39536;52.198;9.920;2023-05-16T08:34:20;100839.44;;;11.98;100.00
13968;BME280;39536;52.198;9.920;2023-05-16T08:36:47;100847.69;;;12.11;100.00
13968;BME280;39536;52.198;9.920;2023-05-16T08:39:14;100843.38;;;12.37;100.00
13968;BME280;39536;52.198;9.920;2023-05-16T08:41:40;100845.94;;;12.12;100.00
13968;BME280;39536;52.198;9.920;2023-05-16T08:44:07;100848.72;;;12.07;100.00
13968;BME280;39536;52.198;9.920;2023-05-16T08:46:35;100858.88;;;11.90;100.00
13968;BME280;39536;52.198;9.920;2023-05-16T08:49:04;100845.09;;;12.11;100.00
13968;BME280;39536;52.198;9.920;2023-05-16T08:51:32;100844.25;;;12.11;100.00
13968;BME280;39536;52.198;9.920;2023-05-16T08:54:03;100862.28;;;12.43;100.00
13968;BME280;39536;52.198;9.920;2023-05-16T08:56:33;100854.06;;;12.54;100.00
13968;BME280;39536;52.198;9.920;2023-05-16T08:58:59;100876.88;;;12.24;100.00
13968;BME280;39536;52.198;9.920;2023-05-16T09:01:27;100860.94;;;12.07;100.00
13968;BME280;39536;52.198;9.920;2023-05-16T09:03:55;100858.34;;;11.78;100.00
13968;BME280;39536;52.198;9.920;2023-05-16T09:06:23;100854.41;;;11.93;100.00
13968;BME280;39536;52.198;9.920;2023-05-16T09:08:50;100855.94;;;12.25;100.00
13968;BME280;39536;52.198;9.920;2023-05-16T09:11:17;100865.00;;;12.15;100.00
13968;BME280;39536;52.198;9.920;2023-05-16T09:13:44;100860.09;;;12.31;100.00
13968;BME280;39536;52.198;9.920;2023-05-16T09:16:12;100846.00;;;12.35;100.00
13968;BME280;39536;52.198;9.920;2023-05-16T09:18:39;100867.09;;;12.79;100.00
13968;BME280;39536;52.198;9.920;2023-05-16T09:21:09;100860.03;;;12.58;100.00
13968;BME280;39536;52.198;9.920;2023-05-16T09:23:37;100866.19;;;12.55;100.00
13968;BME280;39536;52.198;9.920;2023-05-16T09:26:04;100842.03;;;12.74;100.00
13968;BME280;39536;52.198;9.920;2023-05-16T09:28:32;100883.00;;;12.48;100.00
13968;BME280;39536;52.198;9.920;2023-05-16T09:30:59;100859.53;;;12.71;100.00
13968;BME280;39536;52.198;9.920;2023-05-16T09:33:26;100853.47;;;12.94;100.00
13968;BME280;39536;52.198;9.920;2023-05-16T09:35:55;100861.22;;;13.20;100.00
13968;BME280;39536;52.198;9.920;2023-05-16T09:38:23;100840.31;;;12.73;100.00
13968;BME280;39536;52.198;9.920;2023-05-16T09:40:51;100858.97;;;12.63;100.00
13968;BME280;39536;52.198;9.920;2023-05-16T09:43:22;100862.75;;;13.02;100.00
13968;BME280;39536;52.198;9.920;2023-05-16T09:45:48;100852.03;;;12.86;100.00
13968;BME280;39536;52.198;9.920;2023-05-16T09:48:16;100863.59;;;12.55;100.00
13968;BME280;39536;52.198;9.920;2023-05-16T09:50:46;100864.19;;;12.38;100.00
13968;BME280;39536;52.198;9.920;2023-05-16T09:53:13;100849.75;;;12.53;100.00
13968;BME280;39536;52.198;9.920;2023-05-16T09:55:40;100844.88;;;12.91;100.00
13968;BME280;39536;52.198;9.920;2023-05-16T09:58:08;100858.38;;;13.27;100.00
13968;BME280;39536;52.198;9.920;2023-05-16T10:00:34;100856.13;;;13.40;100.00
13968;BME280;39536;52.198;9.920;2023-05-16T10:03:02;100833.41;;;13.62;100.00
13968;BME280;39536;52.198;9.920;2023-05-16T10:05:30;100849.13;;;13.40;100.00
13968;BME280;39536;52.198;9.920;2023-05-16T10:07:57;100843.44;;;13.51;100.00
13968;BME280;39536;52.198;9.920;2023-05-16T10:10:25;100849.16;;;13.39;100.00
13968;BME280;39536;52.198;9.920;2023-05-16T10:12:55;100850.41;;;13.30;100.00
13968;BME280;39536;52.198;9.920;2023-05-16T10:15:25;100850.56;;;13.26;98.38
13968;BME280;39536;52.198;9.920;2023-05-16T10:17:54;100857.13;;;13.36;96.90
13968;BME280;39536;52.198;9.920;2023-05-16T10:20:23;100841.03;;;13.25;100.00
13968;BME280;39536;52.198;9.920;2023-05-16T10:22:52;100849.00;;;13.44;98.62
13968;BME280;39536;52.198;9.920;2023-05-16T10:25:25;100842.44;;;13.55;95.72
13968;BME280;39536;52.198;9.920;2023-05-16T10:27:53;100837.44;;;13.71;90.78
13968;BME280;39536;52.198;9.920;2023-05-16T10:30:20;100842.88;;;13.87;91.60
13968;BME280;39536;52.198;9.920;2023-05-16T10:32:49;100853.91;;;14.16;86.22
13968;BME280;39536;52.198;9.920;2023-05-16T10:35:16;100831.44;;;13.90;84.06
13968;BME280;39536;52.198;9.920;2023-05-16T10:37:43;100835.06;;;13.65;90.34
13968;BME280;39536;52.198;9.920;2023-05-16T10:40:11;100839.63;;;13.60;92.79
13968;BME280;39536;52.198;9.920;2023-05-16T10:42:38;100827.63;;;13.54;96.31
13968;BME280;39536;52.198;9.920;2023-05-16T10:45:08;100832.31;;;13.89;91.55
13968;BME280;39536;52.198;9.920;2023-05-16T10:47:45;100839.75;;;13.99;84.83
13968;BME280;39536;52.198;9.920;2023-05-16T10:50:31;100848.81;;;14.33;84.94
13968;BME280;39536;52.198;9.920;2023-05-16T10:53:13;100843.88;;;14.25;88.09
13968;BME280;39536;52.198;9.920;2023-05-16T10:55:43;100831.75;;;13.60;92.89
13968;BME280;39536;52.198;9.920;2023-05-16T10:58:10;100871.16;;;13.57;93.17
13968;BME280;39536;52.198;9.920;2023-05-16T11:00:38;100830.53;;;13.69;81.17
13968;BME280;39536;52.198;9.920;2023-05-16T11:03:05;100851.97;;;13.78;80.33
13968;BME280;39536;52.198;9.920;2023-05-16T11:05:33;100850.69;;;14.09;85.31
13968;BME280;39536;52.198;9.920;2023-05-16T11:08:04;100854.38;;;14.05;75.43
13968;BME280;39536;52.198;9.920;2023-05-16T11:10:31;100813.81;;;13.93;77.64
13968;BME280;39536;52.198;9.920;2023-05-16T11:13:02;100850.03;;;14.04;82.87
13968;BME280;39536;52.198;9.920;2023-05-16T11:15:31;100833.78;;;14.16;80.72
13968;BME280;39536;52.198;9.920;2023-05-16T11:18:05;100834.31;;;14.24;75.10
13968;BME280;39536;52.198;9.920;2023-05-16T11:20:36;100839.38;;;14.08;72.92
13968;BME280;39536;52.198;9.920;2023-05-16T11:23:22;100844.34;;;14.15;70.28
13968;BME280;39536;52.198;9.920;2023-05-16T11:25:54;100834.38;;;14.43;71.60
13968;BME280;39536;52.198;9.920;2023-05-16T11:28:23;100826.56;;;14.62;71.93
13968;BME280;39536;52.198;9.920;2023-05-16T11:30:51;100831.13;;;14.96;73.05
13968;BME280;39536;52.198;9.920;2023-05-16T11:33:19;100852.25;;;14.74;74.67
13968;BME280;39536;52.198;9.920;2023-05-16T11:36:02;100820.06;;;14.71;75.48
13968;BME280;39536;52.198;9.920;2023-05-16T11:38:29;100834.59;;;14.78;77.86
13968;BME280;39536;52.198;9.920;2023-05-16T11:41:01;100831.69;;;14.65;81.60
13968;BME280;39536;52.198;9.920;2023-05-16T11:43:28;100852.94;;;14.59;80.40
13968;BME280;39536;52.198;9.920;2023-05-16T11:45:54;100839.88;;;14.58;81.68
13968;BME280;39536;52.198;9.920;2023-05-16T11:48:22;100865.28;;;14.95;82.28
13968;BME280;39536;52.198;9.920;2023-05-16T11:50:49;100818.81;;;14.98;82.59
13968;BME280;39536;52.198;9.920;2023-05-16T11:53:18;100843.75;;;15.07;81.46
13968;BME280;39536;52.198;9.920;2023-05-16T11:55:47;100827.09;;;15.27;79.14
13968;BME280;39536;52.198;9.920;2023-05-16T11:58:17;100847.50;;;15.39;80.87
13968;BME280;39536;52.198;9.920;2023-05-16T12:00:47;100850.16;;;15.57;84.01
13968;BME280;39536;52.198;9.920;2023-05-16T12:03:14;100856.53;;;15.51;86.61
13968;BME280;39536;52.198;9.920;2023-05-16T12:05:48;100871.75;;;14.88;89.24
13968;BME280;39536;52.198;9.920;2023-05-16T12:08:16;100851.44;;;14.33;95.91
13968;BME280;39536;52.198;9.920;2023-05-16T12:10:44;100851.56;;;14.30;96.69
13968;BME280;39536;52.198;9.920;2023-05-16T12:13:10;100881.41;;;14.67;93.40
13968;BME280;39536;52.198;9.920;2023-05-16T12:15:37;100840.25;;;14.69;94.00
13968;BME280;39536;52.198;9.920;2023-05-16T12:18:04;100848.25;;;14.66;95.66
13968;BME280;39536;52.198;9.920;2023-05-16T12:20:30;100844.94;;;14.81;94.91
13968;BME280;39536;52.198;9.920;2023-05-16T12:22:57;100870.91;;;15.25;93.69
13968;BME280;39536;52.198;9.920;2023-05-16T12:25:25;100863.41;;;15.36;84.30
13968;BME280;39536;52.198;9.920;2023-05-16T12:27:54;100850.91;;;15.22;85.68
13968;BME280;39536;52.198;9.920;2023-05-16T12:30:21;100874.19;;;15.11;85.95
13968;BME280;39536;52.198;9.920;2023-05-16T12:32:54;100877.09;;;15.05;83.21
13968;BME280;39536;52.198;9.920;2023-05-16T12:35:21;100860.66;;;15.20;83.08
13968;BME280;39536;52.198;9.920;2023-05-16T12:37:48;100856.47;;;15.72;82.45
13968;BME280;39536;52.198;9.920;2023-05-16T12:40:15;100866.59;;;15.43;73.25
13968;BME280;39536;52.198;9.920;2023-05-16T12:42:42;100867.34;;;15.26;72.48
13968;BME280;39536;52.198;9.920;2023-05-16T12:45:14;100864.56;;;15.48;72.54
13968;BME280;39536;52.198;9.920;2023-05-16T12:47:42;100856.09;;;15.60;71.10